sensor_id;sensor_type;location;lat;lon;timestamp;P1;durP1;ratioP1;P2;durP2;ratioP2
31692;SDS011;37436;53.230;6.614;2022-11-15T00:00:09;34.80;;;17.20;;
31692;SDS011;37436;53.230;6.614;2022-11-15T00:02:36;37.70;;;16.63;;
31692;SDS011;37436;53.230;6.614;2022-11-15T00:05:02;37.45;;;17.48;;
31692;SDS011;37436;53.230;6.614;2022-11-15T00:07:28;35.08;;;17.85;;
31692;SDS011;37436;53.230;6.614;2022-11-15T00:09:54;36.70;;;17.83;;
31692;SDS011;37436;53.230;6.614;2022-11-15T00:12:20;33.95;;;17.08;;
31692;SDS011;37436;53.230;6.614;2022-11-15T00:14:46;37.72;;;16.80;;
31692;SDS011;37436;53.230;6.614;2022-11-15T00:17:12;35.35;;;18.23;;
31692;SDS011;37436;53.230;6.614;2022-11-15T00:19:38;38.72;;;16.83;;
31692;SDS011;37436;53.230;6.614;2022-11-15T00:22:04;34.13;;;16.30;;
31692;SDS011;37436;53.230;6.614;2022-11-15T00:24:30;35.88;;;17.55;;
31692;SDS011;37436;53.230;6.614;2022-11-15T00:26:56;41.15;;;18.75;;
31692;SDS011;37436;53.230;6.614;2022-11-15T00:29:22;40.67;;;18.42;;
31692;SDS011;37436;53.230;6.614;2022-11-15T00:31:48;37.65;;;17.55;;
31692;SDS011;37436;53.230;6.614;2022-11-15T00:34:14;40.20;;;17.67;;
31692;SDS011;37436;53.230;6.614;2022-11-15T00:36:40;42.30;;;16.55;;
31692;SDS011;37436;53.230;6.614;2022-11-15T00:39:06;42.53;;;17.55;;
31692;SDS011;37436;53.230;6.614;2022-11-15T00:41:32;39.30;;;18.83;;
31692;SDS011;37436;53.230;6.614;2022-11-15T00:43:58;39.92;;;17.63;;
31692;SDS011;37436;53.230;6.614;2022-11-15T00:46:24;37.67;;;17.88;;
31692;SDS011;37436;53.230;6.614;2022-11-15T00:48:50;35.47;;;17.25;;
31692;SDS011;37436;53.230;6.614;2022-11-15T00:51:16;36.95;;;17.58;;
31692;SDS011;37436;53.230;6.614;2022-11-15T00:53:43;35.30;;;16.77;;
31692;SDS011;37436;53.230;6.614;2022-11-15T00:56:09;35.85;;;16.50;;
31692;SDS011;37436;53.230;6.614;2022-11-15T00:58:35;41.83;;;18.20;;
31692;SDS011;37436;53.230;6.614;2022-11-15T01:01:11;36.40;;;17.65;;
31692;SDS011;37436;53.230;6.614;2022-11-15T01:03:39;40.83;;;17.15;;
31692;SDS011;37436;53.230;6.614;2022-11-15T01:06:06;37.03;;;18.23;;
31692;SDS011;37436;53.230;6.614;2022-11-15T01:08:32;33.25;;;15.88;;
31692;SDS011;37436;53.230;6.614;2022-11-15T01:11:06;42.15;;;18.33;;
31692;SDS011;37436;53.230;6.614;2022-11-15T01:13:32;40.95;;;18.38;;
31692;SDS011;37436;53.230;6.614;2022-11-15T01:16:05;44.58;;;17.58;;
31692;SDS011;37436;53.230;6.614;2022-11-15T01:18:31;38.65;;;18.23;;
31692;SDS011;37436;53.230;6.614;2022-11-15T01:20:57;34.28;;;16.67;;
31692;SDS011;37436;53.230;6.614;2022-11-15T01:23:23;33.80;;;16.83;;
31692;SDS011;37436;53.230;6.614;2022-11-15T01:25:49;37.08;;;16.70;;
31692;SDS011;37436;53.230;6.614;2022-11-15T01:28:15;43.33;;;18.30;;
31692;SDS011;37436;53.230;6.614;2022-11-15T01:30:41;36.53;;;16.77;;
31692;SDS011;37436;53.230;6.614;2022-11-15T01:33:07;39.80;;;17.95;;
31692;SDS011;37436;53.230;6.614;2022-11-15T01:35:33;35.35;;;15.68;;
31692;SDS011;37436;53.230;6.614;2022-11-15T01:38:04;33.85;;;17.00;;
31692;SDS011;37436;53.230;6.614;2022-11-15T01:40:30;30.42;;;15.68;;
31692;SDS011;37436;53.230;6.614;2022-11-15T01:42:56;36.10;;;17.58;;
31692;SDS011;37436;53.230;6.614;2022-11-15T01:45:22;31.13;;;15.43;;
31692;SDS011;37436;53.230;6.614;2022-11-15T01:47:48;37.17;;;17.27;;
31692;SDS011;37436;53.230;6.614;2022-11-15T01:50:17;25.92;;;11.85;;
31692;SDS011;37436;53.230;6.614;2022-11-15T01:52:45;29.13;;;12.57;;
31692;SDS011;37436;53.230;6.614;2022-11-15T01:55:20;34.22;;;16.17;;
31692;SDS011;37436;53.230;6.614;2022-11-15T02:00:13;31.08;;;12.05;;
31692;SDS011;37436;53.230;6.614;2022-11-15T02:02:39;29.70;;;12.85;;
31692;SDS011;37436;53.230;6.614;2022-11-15T02:05:05;28.23;;;13.65;;
31692;SDS011;37436;53.230;6.614;2022-11-15T02:07:32;36.15;;;16.50;;
31692;SDS011;37436;53.230;6.614;2022-11-15T02:10:01;37.53;;;16.88;;
31692;SDS011;37436;53.230;6.614;2022-11-15T02:12:28;35.13;;;16.25;;
31692;SDS011;37436;53.230;6.614;2022-11-15T02:14:54;23.13;;;8.85;;
31692;SDS011;37436;53.230;6.614;2022-11-15T02:25:01;28.52;;;14.25;;
31692;SDS011;37436;53.230;6.614;2022-11-15T02:33:15;30.88;;;11.80;;
31692;SDS011;37436;53.230;6.614;2022-11-15T02:35:58;33.67;;;14.75;;
31692;SDS011;37436;53.230;6.614;2022-11-15T02:38:34;33.30;;;14.95;;
31692;SDS011;37436;53.230;6.614;2022-11-15T02:43:59;41.35;;;15.73;;
31692;SDS011;37436;53.230;6.614;2022-11-15T02:46:40;45.03;;;15.88;;
31692;SDS011;37436;53.230;6.614;2022-11-15T02:49:27;32.80;;;13.00;;
31692;SDS011;37436;53.230;6.614;2022-11-15T02:51:56;43.80;;;16.75;;
31692;SDS011;37436;53.230;6.614;2022-11-15T02:54:23;45.15;;;17.40;;
31692;SDS011;37436;53.230;6.614;2022-11-15T02:56:49;37.17;;;16.67;;
31692;SDS011;37436;53.230;6.614;2022-11-15T03:02:17;44.55;;;16.17;;
31692;SDS011;37436;53.230;6.614;2022-11-15T03:04:46;37.08;;;16.23;;
31692;SDS011;37436;53.230;6.614;2022-11-15T03:07:19;31.00;;;13.48;;
31692;SDS011;37436;53.230;6.614;2022-11-15T03:09:57;37.78;;;16.02;;
31692;SDS011;37436;53.230;6.614;2022-11-15T03:12:33;37.63;;;15.18;;
31692;SDS011;37436;53.230;6.614;2022-11-15T03:17:51;42.35;;;16.85;;
31692;SDS011;37436;53.230;6.614;2022-11-15T03:20:18;38.63;;;17.02;;
31692;SDS011;37436;53.230;6.614;2022-11-15T03:22:45;38.88;;;16.17;;
31692;SDS011;37436;53.230;6.614;2022-11-15T03:25:13;43.13;;;17.02;;
31692;SDS011;37436;53.230;6.614;2022-11-15T03:27:43;38.22;;;16.70;;
31692;SDS011;37436;53.230;6.614;2022-11-15T03:30:10;38.38;;;15.60;;
31692;SDS011;37436;53.230;6.614;2022-11-15T03:32:42;40.75;;;15.43;;
31692;SDS011;37436;53.230;6.614;2022-11-15T03:35:11;40.22;;;16.60;;
31692;SDS011;37436;53.230;6.614;2022-11-15T03:40:04;42.05;;;17.92;;
31692;SDS011;37436;53.230;6.614;2022-11-15T03:42:36;43.95;;;17.52;;
31692;SDS011;37436;53.230;6.614;2022-11-15T03:45:14;42.53;;;18.17;;
31692;SDS011;37436;53.230;6.614;2022-11-15T03:47:58;39.58;;;14.10;;
31692;SDS011;37436;53.230;6.614;2022-11-15T03:50:25;43.75;;;18.23;;
31692;SDS011;37436;53.230;6.614;2022-11-15T03:52:52;38.25;;;14.00;;
31692;SDS011;37436;53.230;6.614;2022-11-15T03:55:20;48.25;;;17.75;;
31692;SDS011;37436;53.230;6.614;2022-11-15T03:57:47;40.17;;;15.63;;
31692;SDS011;37436;53.230;6.614;2022-11-15T04:00:14;43.47;;;16.90;;
31692;SDS011;37436;53.230;6.614;2022-11-15T04:02:40;40.95;;;16.20;;
31692;SDS011;37436;53.230;6.614;2022-11-15T04:05:06;39.22;;;16.33;;
31692;SDS011;37436;53.230;6.614;2022-11-15T04:07:32;34.28;;;14.93;;
31692;SDS011;37436;53.230;6.614;2022-11-15T04:09:58;37.08;;;14.65;;
31692;SDS011;37436;53.230;6.614;2022-11-15T04:12:28;38.35;;;16.08;;
31692;SDS011;37436;53.230;6.614;2022-11-15T04:15:19;44.17;;;17.63;;
31692;SDS011;37436;53.230;6.614;2022-11-15T04:17:47;43.03;;;16.88;;
31692;SDS011;37436;53.230;6.614;2022-11-15T04:20:34;44.75;;;16.92;;
31692;SDS011;37436;53.230;6.614;2022-11-15T04:23:22;38.15;;;16.13;;
31692;SDS011;37436;53.230;6.614;2022-11-15T04:26:17;52.63;;;19.25;;
31692;SDS011;37436;53.230;6.614;2022-11-15T04:28:43;38.42;;;16.20;;
31692;SDS011;37436;53.230;6.614;2022-11-15T04:31:28;46.30;;;17.10;;
31692;SDS011;37436;53.230;6.614;2022-11-15T04:33:55;42.50;;;17.55;;
31692;SDS011;37436;53.230;6.614;2022-11-15T04:36:21;43.47;;;16.65;;
31692;SDS011;37436;53.230;6.614;2022-11-15T04:39:06;47.47;;;18.25;;
31692;SDS011;37436;53.230;6.614;2022-11-15T04:41:32;54.10;;;19.38;;
31692;SDS011;37436;53.230;6.614;2022-11-15T04:43:58;53.67;;;17.65;;
31692;SDS011;37436;53.230;6.614;2022-11-15T04:46:24;49.50;;;17.85;;
31692;SDS011;37436;53.230;6.614;2022-11-15T04:48:57;57.15;;;19.65;;
31692;SDS011;37436;53.230;6.614;2022-11-15T04:51:23;48.28;;;17.55;;
31692;SDS011;37436;53.230;6.614;2022-11-15T04:53:49;58.17;;;19.63;;
31692;SDS011;37436;53.230;6.614;2022-11-15T04:56:15;57.22;;;19.27;;
31692;SDS011;37436;53.230;6.614;2022-11-15T04:58:41;51.03;;;17.92;;
31692;SDS011;37436;53.230;6.614;2022-11-15T05:01:07;49.42;;;18.30;;
31692;SDS011;37436;53.230;6.614;2022-11-15T05:03:34;50.08;;;19.00;;
31692;SDS011;37436;53.230;6.614;2022-11-15T05:06:19;57.58;;;19.75;;
31692;SDS011;37436;53.230;6.614;2022-11-15T05:08:45;60.10;;;19.45;;
31692;SDS011;37436;53.230;6.614;2022-11-15T05:11:11;45.58;;;19.02;;
31692;SDS011;37436;53.230;6.614;2022-11-15T05:13:37;55.95;;;19.70;;
31692;SDS011;37436;53.230;6.614;2022-11-15T05:16:03;55.92;;;19.77;;
31692;SDS011;37436;53.230;6.614;2022-11-15T05:18:29;62.88;;;21.63;;
31692;SDS011;37436;53.230;6.614;2022-11-15T05:21:10;65.40;;;20.77;;
31692;SDS011;37436;53.230;6.614;2022-11-15T05:23:58;59.60;;;19.90;;
31692;SDS011;37436;53.230;6.614;2022-11-15T05:28:53;63.10;;;19.45;;
31692;SDS011;37436;53.230;6.614;2022-11-15T05:31:20;59.70;;;19.88;;
31692;SDS011;37436;53.230;6.614;2022-11-15T05:33:46;63.38;;;20.27;;
31692;SDS011;37436;53.230;6.614;2022-11-15T05:36:21;70.53;;;20.42;;
31692;SDS011;37436;53.230;6.614;2022-11-15T05:41:15;48.70;;;19.52;;
31692;SDS011;37436;53.230;6.614;2022-11-15T05:43:41;70.38;;;20.38;;
31692;SDS011;37436;53.230;6.614;2022-11-15T05:46:15;55.80;;;22.52;;
31692;SDS011;37436;53.230;6.614;2022-11-15T05:48:48;63.53;;;21.98;;
31692;SDS011;37436;53.230;6.614;2022-11-15T05:51:15;53.63;;;20.15;;
31692;SDS011;37436;53.230;6.614;2022-11-15T05:53:43;67.25;;;22.02;;
31692;SDS011;37436;53.230;6.614;2022-11-15T05:56:09;66.85;;;21.17;;
31692;SDS011;37436;53.230;6.614;2022-11-15T05:58:36;67.30;;;21.65;;
31692;SDS011;37436;53.230;6.614;2022-11-15T06:01:02;63.80;;;22.63;;
31692;SDS011;37436;53.230;6.614;2022-11-15T06:03:28;54.38;;;20.48;;
31692;SDS011;37436;53.230;6.614;2022-11-15T06:05:55;70.28;;;21.55;;
31692;SDS011;37436;53.230;6.614;2022-11-15T06:08:21;56.35;;;22.70;;
31692;SDS011;37436;53.230;6.614;2022-11-15T06:10:50;62.53;;;22.67;;
31692;SDS011;37436;53.230;6.614;2022-11-15T06:13:16;73.63;;;24.50;;
31692;SDS011;37436;53.230;6.614;2022-11-15T06:15:42;67.40;;;23.33;;
31692;SDS011;37436;53.230;6.614;2022-11-15T06:18:08;61.97;;;23.20;;
31692;SDS011;37436;53.230;6.614;2022-11-15T06:20:35;62.70;;;22.42;;
31692;SDS011;37436;53.230;6.614;2022-11-15T06:23:01;62.50;;;21.30;;
31692;SDS011;37436;53.230;6.614;2022-11-15T06:25:29;74.28;;;23.42;;
31692;SDS011;37436;53.230;6.614;2022-11-15T06:27:56;87.55;;;24.92;;
31692;SDS011;37436;53.230;6.614;2022-11-15T06:30:22;66.88;;;21.98;;
31692;SDS011;37436;53.230;6.614;2022-11-15T06:32:49;74.88;;;23.52;;
31692;SDS011;37436;53.230;6.614;2022-11-15T06:35:15;76.07;;;23.02;;
31692;SDS011;37436;53.230;6.614;2022-11-15T06:37:41;84.20;;;24.73;;
31692;SDS011;37436;53.230;6.614;2022-11-15T06:40:08;71.40;;;23.70;;
31692;SDS011;37436;53.230;6.614;2022-11-15T06:42:34;79.18;;;22.60;;
31692;SDS011;37436;53.230;6.614;2022-11-15T06:45:00;72.00;;;23.73;;
31692;SDS011;37436;53.230;6.614;2022-11-15T06:47:27;87.03;;;26.30;;
31692;SDS011;37436;53.230;6.614;2022-11-15T06:49:53;65.65;;;23.02;;
31692;SDS011;37436;53.230;6.614;2022-11-15T06:52:19;74.03;;;24.60;;
31692;SDS011;37436;53.230;6.614;2022-11-15T06:54:46;72.55;;;24.38;;
31692;SDS011;37436;53.230;6.614;2022-11-15T06:57:12;78.93;;;24.67;;
31692;SDS011;37436;53.230;6.614;2022-11-15T06:59:38;58.58;;;24.13;;
31692;SDS011;37436;53.230;6.614;2022-11-15T07:02:04;69.95;;;25.33;;
31692;SDS011;37436;53.230;6.614;2022-11-15T07:04:31;71.15;;;23.67;;
31692;SDS011;37436;53.230;6.614;2022-11-15T07:06:57;76.15;;;26.38;;
31692;SDS011;37436;53.230;6.614;2022-11-15T07:09:23;50.63;;;18.20;;
31692;SDS011;37436;53.230;6.614;2022-11-15T07:11:49;67.20;;;23.20;;
31692;SDS011;37436;53.230;6.614;2022-11-15T07:14:15;57.13;;;19.88;;
31692;SDS011;37436;53.230;6.614;2022-11-15T07:16:41;70.28;;;24.90;;
31692;SDS011;37436;53.230;6.614;2022-11-15T07:19:08;56.67;;;20.75;;
31692;SDS011;37436;53.230;6.614;2022-11-15T07:21:34;66.40;;;24.52;;
31692;SDS011;37436;53.230;6.614;2022-11-15T07:24:00;53.83;;;19.92;;
31692;SDS011;37436;53.230;6.614;2022-11-15T07:26:28;44.60;;;18.15;;
31692;SDS011;37436;53.230;6.614;2022-11-15T07:28:54;66.18;;;23.98;;
31692;SDS011;37436;53.230;6.614;2022-11-15T07:31:21;60.58;;;21.08;;
31692;SDS011;37436;53.230;6.614;2022-11-15T07:33:47;58.42;;;21.77;;
31692;SDS011;37436;53.230;6.614;2022-11-15T07:36:13;67.85;;;24.80;;
31692;SDS011;37436;53.230;6.614;2022-11-15T07:38:39;54.80;;;21.30;;
31692;SDS011;37436;53.230;6.614;2022-11-15T07:41:06;64.70;;;24.05;;
31692;SDS011;37436;53.230;6.614;2022-11-15T07:43:32;65.82;;;24.60;;
31692;SDS011;37436;53.230;6.614;2022-11-15T07:46:06;58.45;;;22.55;;
31692;SDS011;37436;53.230;6.614;2022-11-15T07:48:39;59.30;;;22.00;;
31692;SDS011;37436;53.230;6.614;2022-11-15T07:51:06;59.95;;;23.38;;
31692;SDS011;37436;53.230;6.614;2022-11-15T07:53:32;65.43;;;24.05;;
31692;SDS011;37436;53.230;6.614;2022-11-15T07:55:58;61.33;;;22.52;;
31692;SDS011;37436;53.230;6.614;2022-11-15T07:58:24;57.63;;;20.70;;
31692;SDS011;37436;53.230;6.614;2022-11-15T08:00:50;60.13;;;20.85;;
31692;SDS011;37436;53.230;6.614;2022-11-15T08:03:16;44.97;;;19.10;;
31692;SDS011;37436;53.230;6.614;2022-11-15T08:05:43;56.63;;;21.30;;
31692;SDS011;37436;53.230;6.614;2022-11-15T08:08:15;59.83;;;21.95;;
31692;SDS011;37436;53.230;6.614;2022-11-15T08:10:41;44.55;;;16.58;;
31692;SDS011;37436;53.230;6.614;2022-11-15T08:13:08;50.13;;;20.80;;
31692;SDS011;37436;53.230;6.614;2022-11-15T08:15:35;48.20;;;20.65;;
31692;SDS011;37436;53.230;6.614;2022-11-15T08:18:12;56.90;;;20.10;;
31692;SDS011;37436;53.230;6.614;2022-11-15T08:20:39;50.00;;;20.02;;
31692;SDS011;37436;53.230;6.614;2022-11-15T08:23:06;51.70;;;21.05;;
31692;SDS011;37436;53.230;6.614;2022-11-15T08:25:33;28.08;;;13.30;;
31692;SDS011;37436;53.230;6.614;2022-11-15T08:28:00;47.90;;;21.40;;
31692;SDS011;37436;53.230;6.614;2022-11-15T08:30:26;52.08;;;20.45;;
31692;SDS011;37436;53.230;6.614;2022-11-15T08:32:53;50.17;;;19.10;;
31692;SDS011;37436;53.230;6.614;2022-11-15T08:35:19;32.63;;;12.95;;
31692;SDS011;37436;53.230;6.614;2022-11-15T08:37:46;39.30;;;18.40;;
31692;SDS011;37436;53.230;6.614;2022-11-15T08:40:12;42.67;;;18.00;;
31692;SDS011;37436;53.230;6.614;2022-11-15T08:42:39;35.13;;;16.90;;
31692;SDS011;37436;53.230;6.614;2022-11-15T08:45:05;45.85;;;18.85;;
31692;SDS011;37436;53.230;6.614;2022-11-15T08:47:38;45.35;;;18.67;;
31692;SDS011;37436;53.230;6.614;2022-11-15T08:50:04;39.47;;;16.85;;
31692;SDS011;37436;53.230;6.614;2022-11-15T08:52:30;42.60;;;18.27;;
31692;SDS011;37436;53.230;6.614;2022-11-15T08:54:56;32.70;;;14.48;;
31692;SDS011;37436;53.230;6.614;2022-11-15T08:57:23;30.38;;;14.00;;
31692;SDS011;37436;53.230;6.614;2022-11-15T08:59:49;36.22;;;17.48;;
31692;SDS011;37436;53.230;6.614;2022-11-15T09:02:15;31.40;;;17.13;;
31692;SDS011;37436;53.230;6.614;2022-11-15T09:04:41;33.30;;;14.52;;
31692;SDS011;37436;53.230;6.614;2022-11-15T09:07:08;41.13;;;16.17;;
31692;SDS011;37436;53.230;6.614;2022-11-15T09:09:34;34.58;;;12.85;;
31692;SDS011;37436;53.230;6.614;2022-11-15T09:12:00;28.85;;;12.43;;
31692;SDS011;37436;53.230;6.614;2022-11-15T09:14:26;29.65;;;15.00;;
31692;SDS011;37436;53.230;6.614;2022-11-15T09:16:52;36.05;;;15.20;;
31692;SDS011;37436;53.230;6.614;2022-11-15T09:19:18;32.13;;;14.85;;
31692;SDS011;37436;53.230;6.614;2022-11-15T09:21:44;27.90;;;15.48;;
31692;SDS011;37436;53.230;6.614;2022-11-15T09:24:10;27.90;;;15.57;;
31692;SDS011;37436;53.230;6.614;2022-11-15T09:26:36;26.80;;;13.00;;
31692;SDS011;37436;53.230;6.614;2022-11-15T09:29:02;23.63;;;12.57;;
31692;SDS011;37436;53.230;6.614;2022-11-15T09:31:29;30.10;;;13.43;;
31692;SDS011;37436;53.230;6.614;2022-11-15T09:33:55;31.10;;;14.55;;
31692;SDS011;37436;53.230;6.614;2022-11-15T09:36:21;28.67;;;13.98;;
31692;SDS011;37436;53.230;6.614;2022-11-15T09:38:47;25.92;;;13.63;;
31692;SDS011;37436;53.230;6.614;2022-11-15T09:43:43;23.63;;;10.82;;
31692;SDS011;37436;53.230;6.614;2022-11-15T09:48:57;30.25;;;13.45;;
31692;SDS011;37436;53.230;6.614;2022-11-15T09:56:32;30.70;;;14.65;;
31692;SDS011;37436;53.230;6.614;2022-11-15T10:04:19;28.17;;;13.35;;
31692;SDS011;37436;53.230;6.614;2022-11-15T10:06:48;30.00;;;12.98;;
31692;SDS011;37436;53.230;6.614;2022-11-15T10:09:17;26.50;;;12.90;;
31692;SDS011;37436;53.230;6.614;2022-11-15T10:11:45;25.55;;;13.38;;
31692;SDS011;37436;53.230;6.614;2022-11-15T10:14:24;25.50;;;13.00;;
31692;SDS011;37436;53.230;6.614;2022-11-15T10:19:43;35.97;;;14.65;;
31692;SDS011;37436;53.230;6.614;2022-11-15T10:22:16;26.10;;;12.48;;
31692;SDS011;37436;53.230;6.614;2022-11-15T10:24:44;26.00;;;11.40;;
31692;SDS011;37436;53.230;6.614;2022-11-15T10:27:16;26.02;;;12.57;;
31692;SDS011;37436;53.230;6.614;2022-11-15T10:29:46;31.88;;;13.20;;
31692;SDS011;37436;53.230;6.614;2022-11-15T10:32:14;29.48;;;12.55;;
31692;SDS011;37436;53.230;6.614;2022-11-15T10:34:40;27.38;;;12.32;;
31692;SDS011;37436;53.230;6.614;2022-11-15T10:37:07;30.50;;;12.57;;
31692;SDS011;37436;53.230;6.614;2022-11-15T10:39:33;24.83;;;12.15;;
31692;SDS011;37436;53.230;6.614;2022-11-15T10:44:45;25.35;;;12.52;;
31692;SDS011;37436;53.230;6.614;2022-11-15T10:47:30;26.85;;;12.25;;
31692;SDS011;37436;53.230;6.614;2022-11-15T10:52:51;23.05;;;12.00;;
31692;SDS011;37436;53.230;6.614;2022-11-15T10:55:20;35.42;;;12.57;;
31692;SDS011;37436;53.230;6.614;2022-11-15T10:57:51;23.75;;;11.82;;
31692;SDS011;37436;53.230;6.614;2022-11-15T11:05:39;26.90;;;11.75;;
31692;SDS011;37436;53.230;6.614;2022-11-15T11:10:57;24.33;;;12.70;;
31692;SDS011;37436;53.230;6.614;2022-11-15T11:13:25;24.88;;;12.85;;
31692;SDS011;37436;53.230;6.614;2022-11-15T11:16:38;24.30;;;11.98;;
31692;SDS011;37436;53.230;6.614;2022-11-15T11:21:25;21.60;;;10.82;;
31692;SDS011;37436;53.230;6.614;2022-11-15T11:23:53;22.75;;;10.43;;
31692;SDS011;37436;53.230;6.614;2022-11-15T11:26:31;21.27;;;11.88;;
31692;SDS011;37436;53.230;6.614;2022-11-15T11:31:58;20.13;;;11.90;;
31692;SDS011;37436;53.230;6.614;2022-11-15T11:34:46;22.90;;;11.88;;
31692;SDS011;37436;53.230;6.614;2022-11-15T11:40:08;18.67;;;11.15;;
31692;SDS011;37436;53.230;6.614;2022-11-15T11:42:33;21.45;;;11.48;;
31692;SDS011;37436;53.230;6.614;2022-11-15T11:47:30;23.45;;;11.07;;
31692;SDS011;37436;53.230;6.614;2022-11-15T11:50:15;20.55;;;9.65;;
31692;SDS011;37436;53.230;6.614;2022-11-15T11:53:03;19.33;;;9.98;;
31692;SDS011;37436;53.230;6.614;2022-11-15T12:06:00;13.25;;;7.13;;
31692;SDS011;37436;53.230;6.614;2022-11-15T12:11:17;12.45;;;7.45;;
31692;SDS011;37436;53.230;6.614;2022-11-15T12:13:44;9.88;;;7.15;;
31692;SDS011;37436;53.230;6.614;2022-11-15T12:16:21;11.23;;;6.88;;
31692;SDS011;37436;53.230;6.614;2022-11-15T12:18:50;13.70;;;6.97;;
31692;SDS011;37436;53.230;6.614;2022-11-15T12:24:03;11.15;;;5.85;;
31692;SDS011;37436;53.230;6.614;2022-11-15T12:26:33;9.98;;;5.32;;
31692;SDS011;37436;53.230;6.614;2022-11-15T12:29:04;12.93;;;6.15;;
31692;SDS011;37436;53.230;6.614;2022-11-15T12:34:01;9.88;;;5.70;;
31692;SDS011;37436;53.230;6.614;2022-11-15T12:36:35;8.38;;;4.68;;
31692;SDS011;37436;53.230;6.614;2022-11-15T12:39:03;14.52;;;5.25;;
31692;SDS011;37436;53.230;6.614;2022-11-15T12:41:30;12.32;;;5.20;;
31692;SDS011;37436;53.230;6.614;2022-11-15T12:43:56;10.80;;;4.40;;
31692;SDS011;37436;53.230;6.614;2022-11-15T12:48:51;7.50;;;3.95;;
31692;SDS011;37436;53.230;6.614;2022-11-15T12:51:19;10.07;;;4.40;;
31692;SDS011;37436;53.230;6.614;2022-11-15T12:53:45;7.40;;;4.45;;
31692;SDS011;37436;53.230;6.614;2022-11-15T13:06:54;6.60;;;4.10;;
31692;SDS011;37436;53.230;6.614;2022-11-15T13:14:42;8.25;;;4.07;;
31692;SDS011;37436;53.230;6.614;2022-11-15T13:19:51;7.47;;;3.65;;
31692;SDS011;37436;53.230;6.614;2022-11-15T13:22:18;8.43;;;3.80;;
31692;SDS011;37436;53.230;6.614;2022-11-15T13:25:03;7.68;;;3.67;;
31692;SDS011;37436;53.230;6.614;2022-11-15T13:27:29;13.23;;;4.43;;
31692;SDS011;37436;53.230;6.614;2022-11-15T13:29:55;6.07;;;3.55;;
31692;SDS011;37436;53.230;6.614;2022-11-15T13:32:21;8.82;;;3.55;;
31692;SDS011;37436;53.230;6.614;2022-11-15T13:34:48;5.80;;;3.30;;
31692;SDS011;37436;53.230;6.614;2022-11-15T13:39:52;4.78;;;2.90;;
31692;SDS011;37436;53.230;6.614;2022-11-15T13:42:19;5.53;;;3.33;;
31692;SDS011;37436;53.230;6.614;2022-11-15T13:45:22;7.43;;;3.35;;
31692;SDS011;37436;53.230;6.614;2022-11-15T13:47:41;4.30;;;3.28;;
31692;SDS011;37436;53.230;6.614;2022-11-15T13:50:10;7.30;;;3.53;;
31692;SDS011;37436;53.230;6.614;2022-11-15T13:52:37;8.15;;;3.50;;
31692;SDS011;37436;53.230;6.614;2022-11-15T13:55:09;8.85;;;3.75;;
31692;SDS011;37436;53.230;6.614;2022-11-15T13:57:46;8.15;;;3.40;;
31692;SDS011;37436;53.230;6.614;2022-11-15T14:03:10;7.68;;;3.38;;
31692;SDS011;37436;53.230;6.614;2022-11-15T14:06:13;7.45;;;3.40;;
31692;SDS011;37436;53.230;6.614;2022-11-15T14:11:26;7.45;;;3.63;;
31692;SDS011;37436;53.230;6.614;2022-11-15T14:16:35;8.30;;;3.28;;
31692;SDS011;37436;53.230;6.614;2022-11-15T14:19:01;7.32;;;3.72;;
31692;SDS011;37436;53.230;6.614;2022-11-15T14:21:28;5.80;;;2.90;;
31692;SDS011;37436;53.230;6.614;2022-11-15T14:26:41;4.38;;;2.92;;
31692;SDS011;37436;53.230;6.614;2022-11-15T14:29:27;6.57;;;2.95;;
31692;SDS011;37436;53.230;6.614;2022-11-15T14:31:54;4.70;;;2.88;;
31692;SDS011;37436;53.230;6.614;2022-11-15T14:34:34;6.57;;;3.00;;
31692;SDS011;37436;53.230;6.614;2022-11-15T14:37:00;6.70;;;2.78;;
31692;SDS011;37436;53.230;6.614;2022-11-15T14:39:26;8.02;;;2.95;;
31692;SDS011;37436;53.230;6.614;2022-11-15T14:41:52;7.28;;;3.00;;
31692;SDS011;37436;53.230;6.614;2022-11-15T14:44:21;5.35;;;2.35;;
31692;SDS011;37436;53.230;6.614;2022-11-15T14:46:47;3.90;;;2.42;;
31692;SDS011;37436;53.230;6.614;2022-11-15T14:49:13;5.15;;;2.42;;
31692;SDS011;37436;53.230;6.614;2022-11-15T14:51:40;5.38;;;3.08;;
31692;SDS011;37436;53.230;6.614;2022-11-15T14:54:09;4.28;;;2.50;;
31692;SDS011;37436;53.230;6.614;2022-11-15T14:56:35;5.40;;;2.85;;
31692;SDS011;37436;53.230;6.614;2022-11-15T14:59:01;10.50;;;3.75;;
31692;SDS011;37436;53.230;6.614;2022-11-15T15:01:27;6.60;;;3.00;;
31692;SDS011;37436;53.230;6.614;2022-11-15T15:03:53;7.53;;;2.90;;
31692;SDS011;37436;53.230;6.614;2022-11-15T15:06:23;8.50;;;3.15;;
31692;SDS011;37436;53.230;6.614;2022-11-15T15:08:49;7.57;;;3.20;;
31692;SDS011;37436;53.230;6.614;2022-11-15T15:11:18;7.18;;;3.13;;
31692;SDS011;37436;53.230;6.614;2022-11-15T15:13:46;5.32;;;3.40;;
31692;SDS011;37436;53.230;6.614;2022-11-15T15:16:12;10.50;;;3.85;;
31692;SDS011;37436;53.230;6.614;2022-11-15T15:18:38;7.85;;;3.38;;
31692;SDS011;37436;53.230;6.614;2022-11-15T15:21:04;8.43;;;3.25;;
31692;SDS011;37436;53.230;6.614;2022-11-15T15:26:11;4.82;;;3.38;;
31692;SDS011;37436;53.230;6.614;2022-11-15T15:28:37;6.85;;;3.47;;
31692;SDS011;37436;53.230;6.614;2022-11-15T15:31:04;7.35;;;3.25;;
31692;SDS011;37436;53.230;6.614;2022-11-15T15:33:30;8.18;;;3.80;;
31692;SDS011;37436;53.230;6.614;2022-11-15T15:35:56;5.07;;;3.75;;
31692;SDS011;37436;53.230;6.614;2022-11-15T15:38:22;6.28;;;3.38;;
31692;SDS011;37436;53.230;6.614;2022-11-15T15:40:48;9.27;;;3.30;;
31692;SDS011;37436;53.230;6.614;2022-11-15T15:43:14;5.85;;;3.65;;
31692;SDS011;37436;53.230;6.614;2022-11-15T15:45:41;6.25;;;3.50;;
31692;SDS011;37436;53.230;6.614;2022-11-15T15:48:11;7.75;;;3.90;;
31692;SDS011;37436;53.230;6.614;2022-11-15T15:50:38;7.18;;;3.75;;
31692;SDS011;37436;53.230;6.614;2022-11-15T15:53:04;9.80;;;4.72;;
31692;SDS011;37436;53.230;6.614;2022-11-15T15:55:30;8.15;;;3.78;;
31692;SDS011;37436;53.230;6.614;2022-11-15T15:57:56;5.35;;;3.63;;
31692;SDS011;37436;53.230;6.614;2022-11-15T16:00:23;8.52;;;4.40;;
31692;SDS011;37436;53.230;6.614;2022-11-15T16:02:50;10.00;;;4.47;;
31692;SDS011;37436;53.230;6.614;2022-11-15T16:05:16;8.85;;;4.53;;
31692;SDS011;37436;53.230;6.614;2022-11-15T16:07:42;8.10;;;4.43;;
31692;SDS011;37436;53.230;6.614;2022-11-15T16:10:19;6.32;;;4.50;;
31692;SDS011;37436;53.230;6.614;2022-11-15T16:12:46;7.50;;;4.25;;
31692;SDS011;37436;53.230;6.614;2022-11-15T16:15:12;6.75;;;4.25;;
31692;SDS011;37436;53.230;6.614;2022-11-15T16:17:39;6.95;;;3.58;;
31692;SDS011;37436;53.230;6.614;2022-11-15T16:20:08;5.60;;;4.03;;
31692;SDS011;37436;53.230;6.614;2022-11-15T16:22:39;8.38;;;4.60;;
31692;SDS011;37436;53.230;6.614;2022-11-15T16:25:05;11.27;;;5.03;;
31692;SDS011;37436;53.230;6.614;2022-11-15T16:27:31;10.77;;;3.92;;
31692;SDS011;37436;53.230;6.614;2022-11-15T16:30:03;7.47;;;3.83;;
31692;SDS011;37436;53.230;6.614;2022-11-15T16:32:30;7.68;;;4.20;;
31692;SDS011;37436;53.230;6.614;2022-11-15T16:34:56;10.13;;;4.57;;
31692;SDS011;37436;53.230;6.614;2022-11-15T16:37:29;7.93;;;4.00;;
31692;SDS011;37436;53.230;6.614;2022-11-15T16:39:56;10.90;;;5.05;;
31692;SDS011;37436;53.230;6.614;2022-11-15T16:42:22;8.90;;;4.82;;
31692;SDS011;37436;53.230;6.614;2022-11-15T16:44:48;9.82;;;4.30;;
31692;SDS011;37436;53.230;6.614;2022-11-15T16:47:17;5.55;;;4.10;;